createdAt,value
2023-02-03T00:00:01.324Z,1.10
2023-02-03T00:02:28.459Z,1.55
2023-02-03T00:04:55.625Z,1.20
2023-02-03T00:07:22.776Z,1.38
2023-02-03T00:09:50.325Z,1.30
2023-02-03T00:12:17.494Z,1.00
2023-02-03T00:14:44.678Z,2.15
2023-02-03T00:17:15.092Z,1.50
2023-02-03T00:19:42.268Z,1.30
2023-02-03T00:22:09.547Z,1.30
2023-02-03T00:24:39.123Z,1.30
2023-02-03T00:27:06.351Z,1.27
2023-02-03T00:29:33.731Z,1.20
2023-02-03T00:32:05.712Z,1.40
2023-02-03T00:34:35.391Z,1.40
2023-02-03T00:37:02.554Z,1.42
2023-02-03T00:39:32.098Z,1.40
2023-02-03T00:42:01.999Z,1.27
2023-02-03T00:44:29.170Z,1.27
2023-02-03T00:46:56.816Z,1.20
2023-02-03T00:49:26.202Z,1.25
2023-02-03T00:51:53.536Z,1.17
2023-02-03T00:54:21.356Z,1.33
2023-02-03T00:56:48.503Z,1.10
2023-02-03T00:59:18.111Z,1.15
2023-02-03T01:01:45.437Z,1.20
2023-02-03T01:04:12.911Z,1.20
2023-02-03T01:06:41.703Z,1.20
2023-02-03T01:09:09.199Z,1.00
2023-02-03T01:11:36.409Z,1.20
2023-02-03T01:14:05.839Z,1.00
2023-02-03T01:16:36.346Z,1.20
2023-02-03T01:19:04.353Z,1.30
2023-02-03T01:21:32.161Z,1.13
2023-02-03T01:24:00.760Z,1.00
2023-02-03T01:26:28.387Z,1.20
2023-02-03T01:29:00.174Z,1.00
2023-02-03T01:31:37.020Z,1.00
2023-02-03T01:34:04.430Z,1.10
2023-02-03T01:36:35.505Z,1.10
2023-02-03T01:39:06.021Z,1.50
2023-02-03T01:41:35.842Z,1.00
2023-02-03T01:44:43.061Z,1.10
2023-02-03T01:47:16.156Z,1.30
2023-02-03T01:49:49.002Z,0.98
2023-02-03T01:52:16.966Z,1.63
2023-02-03T01:54:47.315Z,1.52
2023-02-03T01:57:21.731Z,1.00
2023-02-03T01:59:53.545Z,1.20
2023-02-03T02:02:23.529Z,1.20
2023-02-03T02:05:11.652Z,1.40
2023-02-03T02:07:41.265Z,1.30
2023-02-03T02:10:10.355Z,1.25
2023-02-03T02:12:40.455Z,1.33
2023-02-03T02:15:08.305Z,1.20
2023-02-03T02:17:58.301Z,1.20
2023-02-03T02:20:34.527Z,1.08
2023-02-03T02:23:30.078Z,1.40
2023-02-03T02:25:59.601Z,1.30
2023-02-03T02:28:44.380Z,1.05
2023-02-03T02:31:30.562Z,1.30
2023-02-03T02:34:02.657Z,1.33
2023-02-03T02:36:51.990Z,1.27
2023-02-03T02:39:44.307Z,1.33
2023-02-03T02:42:22.145Z,1.15
2023-02-03T02:45:05.187Z,1.20
2023-02-03T02:47:32.607Z,1.17
2023-02-03T02:50:12.684Z,1.10
2023-02-03T02:52:42.702Z,0.90
2023-02-03T02:55:24.466Z,1.25
2023-02-03T02:58:01.040Z,1.00
2023-02-03T03:00:35.048Z,1.15
2023-02-03T03:03:15.735Z,1.20
2023-02-03T03:05:52.969Z,1.00
2023-02-03T03:08:37.168Z,1.02
2023-02-03T03:11:04.865Z,1.30
2023-02-03T03:13:38.074Z,1.10
2023-02-03T03:16:09.395Z,1.35
2023-02-03T03:18:44.026Z,0.95
2023-02-03T03:21:16.198Z,1.25
2023-02-03T03:23:47.668Z,1.00
2023-02-03T03:26:32.340Z,1.20
2023-02-03T03:29:30.267Z,1.35
2023-02-03T03:31:57.992Z,1.35
2023-02-03T03:34:25.509Z,0.93
2023-02-03T03:37:06.949Z,1.23
2023-02-03T03:39:47.218Z,1.13
2023-02-03T03:42:25.965Z,1.00
2023-02-03T03:44:58.094Z,1.27
2023-02-03T03:47:51.914Z,1.20
2023-02-03T03:50:25.384Z,0.90
2023-02-03T03:52:55.639Z,1.02
2023-02-03T03:55:29.038Z,0.90
2023-02-03T04:00:32.275Z,0.98
2023-02-03T04:03:10.695Z,1.20
2023-02-03T04:05:41.251Z,1.20
2023-02-03T04:08:08.907Z,1.08
2023-02-03T04:10:41.157Z,1.30
2023-02-03T04:13:09.838Z,0.82
2023-02-03T04:15:39.906Z,1.02
2023-02-03T04:18:07.058Z,1.00
2023-02-03T04:20:37.402Z,1.00
2023-02-03T04:23:04.832Z,1.17
2023-02-03T04:25:34.371Z,1.23
2023-02-03T04:28:01.860Z,1.50
2023-02-03T04:30:29.394Z,1.10
2023-02-03T04:32:57.090Z,1.30
2023-02-03T04:35:24.233Z,1.20
2023-02-03T04:37:51.645Z,1.27
2023-02-03T04:40:19.041Z,1.40
2023-02-03T04:42:46.168Z,1.25
2023-02-03T04:45:13.709Z,1.30
2023-02-03T04:47:40.900Z,2.50
2023-02-03T04:50:08.769Z,1.40
2023-02-03T04:52:36.026Z,1.38
2023-02-03T04:55:04.003Z,1.70
2023-02-03T04:57:33.912Z,1.58
2023-02-03T05:00:05.863Z,1.48
2023-02-03T05:02:35.465Z,1.48
2023-02-03T05:05:02.667Z,1.30
2023-02-03T05:07:30.235Z,1.30
2023-02-03T05:09:59.666Z,1.40
2023-02-03T05:12:27.155Z,1.40
2023-02-03T05:14:54.426Z,1.15
2023-02-03T05:17:21.591Z,1.17
2023-02-03T05:19:48.897Z,1.60
2023-02-03T05:22:16.314Z,1.60
2023-02-03T05:24:46.294Z,1.63
2023-02-03T05:27:16.020Z,1.13
2023-02-03T05:29:43.208Z,1.35
2023-02-03T05:32:10.600Z,1.40
2023-02-03T05:34:42.057Z,1.20
2023-02-03T05:37:09.913Z,1.27
2023-02-03T05:39:37.173Z,1.30
2023-02-03T05:42:04.620Z,1.40
2023-02-03T05:44:33.964Z,1.13
2023-02-03T05:47:03.595Z,1.30
2023-02-03T05:49:30.873Z,1.23
2023-02-03T05:51:58.106Z,1.40
2023-02-03T05:54:27.647Z,1.50
2023-02-03T05:56:55.275Z,1.50
2023-02-03T05:59:22.664Z,1.55
2023-02-03T06:01:52.055Z,1.50
2023-02-03T06:04:19.372Z,1.35
2023-02-03T06:06:52.237Z,1.40
2023-02-03T06:09:20.083Z,1.52
2023-02-03T06:11:47.387Z,1.70
2023-02-03T06:14:15.051Z,1.67
2023-02-03T06:16:42.405Z,1.60
2023-02-03T06:19:09.865Z,1.30
2023-02-03T06:21:40.370Z,1.40
2023-02-03T06:24:10.609Z,1.40
2023-02-03T06:26:37.780Z,1.60
2023-02-03T06:29:08.850Z,1.50
2023-02-03T06:31:38.434Z,1.60
2023-02-03T06:34:05.667Z,1.60
2023-02-03T06:36:37.768Z,1.30
2023-02-03T06:39:04.851Z,1.40
2023-02-03T06:41:33.159Z,1.42
2023-02-03T06:44:00.429Z,1.40
2023-02-03T06:46:30.108Z,1.35
2023-02-03T06:48:57.428Z,1.83
2023-02-03T06:51:27.286Z,1.45
2023-02-03T06:53:54.560Z,1.38
2023-02-03T06:56:26.449Z,1.52
2023-02-03T06:58:53.932Z,1.58
2023-02-03T07:01:23.742Z,1.60
2023-02-03T07:03:50.891Z,2.45
2023-02-03T07:06:18.590Z,1.60
2023-02-03T07:08:48.046Z,1.55
2023-02-03T07:11:15.475Z,1.40
2023-02-03T07:13:46.023Z,1.40
2023-02-03T07:16:14.068Z,1.77
2023-02-03T07:18:47.486Z,2.25
2023-02-03T07:21:17.779Z,1.73
2023-02-03T07:23:49.111Z,2.00
2023-02-03T07:26:17.662Z,1.70
2023-02-03T07:28:45.364Z,1.60
2023-02-03T07:31:12.641Z,1.40
2023-02-03T07:33:40.330Z,1.50
2023-02-03T07:36:11.198Z,1.50
2023-02-03T07:38:41.685Z,1.60
2023-02-03T07:41:09.448Z,1.60
2023-02-03T07:43:36.906Z,1.70
2023-02-03T07:46:06.822Z,1.52
2023-02-03T07:48:36.188Z,1.48
2023-02-03T07:51:05.828Z,1.65
2023-02-03T07:53:35.896Z,1.80
2023-02-03T07:56:05.875Z,1.83
2023-02-03T07:58:35.726Z,1.55
2023-02-03T08:01:14.638Z,1.45
2023-02-03T08:03:42.757Z,1.48
2023-02-03T08:06:11.309Z,1.50
2023-02-03T08:08:41.947Z,1.35
2023-02-03T08:11:11.400Z,1.60
2023-02-03T08:13:38.989Z,1.50
2023-02-03T08:16:06.798Z,1.58
2023-02-03T08:18:36.441Z,1.58
2023-02-03T08:21:07.007Z,2.00
2023-02-03T08:23:36.456Z,1.70
2023-02-03T08:26:03.798Z,1.60
2023-02-03T08:28:31.215Z,1.50
2023-02-03T08:31:03.064Z,1.60
2023-02-03T08:33:33.544Z,1.38
2023-02-03T08:36:01.190Z,1.50
2023-02-03T08:38:28.812Z,2.22
2023-02-03T08:40:56.172Z,1.45
2023-02-03T08:43:23.451Z,1.38
2023-02-03T08:45:50.676Z,1.30
2023-02-03T08:48:18.349Z,1.50
2023-02-03T08:50:51.857Z,1.52
2023-02-03T08:53:25.296Z,1.40
2023-02-03T08:55:56.271Z,1.45
2023-02-03T08:58:23.712Z,1.42
2023-02-03T09:00:53.197Z,1.38
2023-02-03T09:03:23.650Z,1.02
2023-02-03T09:05:50.965Z,1.25
2023-02-03T09:08:18.171Z,1.77
2023-02-03T09:10:47.585Z,1.40
2023-02-03T09:13:15.080Z,1.20
2023-02-03T09:15:42.670Z,1.40
2023-02-03T09:18:12.232Z,1.70
2023-02-03T09:20:39.823Z,1.15
2023-02-03T09:23:07.131Z,1.30
2023-02-03T09:25:34.593Z,1.50
2023-02-03T09:28:02.790Z,1.40
2023-02-03T09:30:30.877Z,1.50
2023-02-03T09:33:00.520Z,1.38
2023-02-03T09:35:29.337Z,1.42
2023-02-03T09:37:58.468Z,1.33
2023-02-03T09:40:31.042Z,1.40
2023-02-03T09:43:13.702Z,1.45
2023-02-03T09:45:40.959Z,1.20
2023-02-03T09:48:16.769Z,1.35
2023-02-03T09:50:46.397Z,1.23
2023-02-03T09:53:30.849Z,1.42
2023-02-03T09:55:59.564Z,1.20
2023-02-03T09:58:32.512Z,1.55
2023-02-03T10:01:02.659Z,1.50
2023-02-03T10:03:47.735Z,1.42
2023-02-03T10:06:38.293Z,1.45
2023-02-03T10:09:39.868Z,1.60
2023-02-03T10:12:25.716Z,1.90
2023-02-03T10:15:07.306Z,2.03
2023-02-03T10:17:42.075Z,2.45
2023-02-03T10:20:09.752Z,2.45
2023-02-03T10:22:43.158Z,2.10
2023-02-03T10:25:26.140Z,2.28
2023-02-03T10:27:58.578Z,2.50
2023-02-03T10:30:38.258Z,2.67
2023-02-03T10:33:11.978Z,3.05
2023-02-03T10:35:52.315Z,2.63
2023-02-03T10:38:32.602Z,2.40
2023-02-03T10:41:02.074Z,2.25
2023-02-03T10:43:51.556Z,3.05
2023-02-03T10:46:28.035Z,2.40
2023-02-03T10:48:58.656Z,2.45
2023-02-03T10:54:02.155Z,2.40
2023-02-03T10:56:37.936Z,2.45
2023-02-03T10:59:07.378Z,2.60
2023-02-03T11:01:42.710Z,2.28
2023-02-03T11:04:30.569Z,2.53
2023-02-03T11:07:22.687Z,2.35
2023-02-03T11:09:52.454Z,1.83
2023-02-03T11:12:20.217Z,2.45
2023-02-03T11:14:50.534Z,2.53
2023-02-03T11:17:24.713Z,2.75
2023-02-03T11:19:58.545Z,2.20
2023-02-03T11:22:35.807Z,2.10
2023-02-03T11:25:05.844Z,2.55
2023-02-03T11:27:33.786Z,1.95
2023-02-03T11:30:20.438Z,2.17
2023-02-03T11:32:50.843Z,2.35
2023-02-03T11:35:24.237Z,2.60
2023-02-03T11:37:53.183Z,2.15
2023-02-03T11:40:38.412Z,2.10
2023-02-03T11:43:19.789Z,2.22
2023-02-03T11:46:00.805Z,2.10
2023-02-03T11:48:28.508Z,2.15
2023-02-03T11:51:42.846Z,1.80
2023-02-03T11:54:41.558Z,2.17
2023-02-03T11:57:14.636Z,2.08
2023-02-03T12:00:02.959Z,2.35
2023-02-03T12:02:38.378Z,2.10
2023-02-03T12:05:17.761Z,1.98
2023-02-03T12:08:05.314Z,1.65
2023-02-03T12:10:55.359Z,1.88
2023-02-03T12:13:56.191Z,1.95
2023-02-03T12:16:41.748Z,1.80
2023-02-03T12:19:22.109Z,1.60
2023-02-03T12:22:04.476Z,1.80
2023-02-03T12:24:51.375Z,2.20
2023-02-03T12:28:01.340Z,1.65
2023-02-03T12:30:35.450Z,1.75
2023-02-03T12:33:18.510Z,1.88
2023-02-03T12:35:57.642Z,2.00
2023-02-03T12:38:46.112Z,1.88
2023-02-03T12:41:18.369Z,1.73
2023-02-03T12:43:55.063Z,1.90
2023-02-03T12:46:31.180Z,1.60
2023-02-03T12:49:15.145Z,1.65
2023-02-03T12:51:54.556Z,2.10
2023-02-03T12:54:34.108Z,1.88
2023-02-03T12:57:26.635Z,2.00
2023-02-03T13:00:13.633Z,2.08
2023-02-03T13:03:17.455Z,2.00
2023-02-03T13:06:10.885Z,1.80
2023-02-03T13:08:58.422Z,1.95
2023-02-03T13:11:41.245Z,1.88
2023-02-03T13:14:19.419Z,2.50
2023-02-03T13:16:53.605Z,2.38
2023-02-03T13:19:29.353Z,2.17
2023-02-03T13:21:59.525Z,2.30
2023-02-03T13:24:30.036Z,2.15
2023-02-03T13:27:18.019Z,2.40
2023-02-03T13:30:12.076Z,2.85
2023-02-03T13:33:07.702Z,2.47
2023-02-03T13:35:37.927Z,2.33
2023-02-03T13:38:22.965Z,2.33
2023-02-03T13:41:03.308Z,2.08
2023-02-03T13:43:44.445Z,2.00
2023-02-03T13:46:27.888Z,2.40
2023-02-03T13:49:01.320Z,2.20
2023-02-03T13:51:35.963Z,2.53
2023-02-03T13:54:14.008Z,2.30
2023-02-03T13:57:20.107Z,2.30
2023-02-03T13:59:48.484Z,2.25
2023-02-03T14:02:21.757Z,2.33
2023-02-03T14:04:56.389Z,2.15
2023-02-03T14:07:34.465Z,2.47
2023-02-03T14:10:16.854Z,2.20
2023-02-03T14:12:52.770Z,2.77
2023-02-03T14:15:26.563Z,2.60
2023-02-03T14:18:05.846Z,2.63
2023-02-03T14:20:43.317Z,2.25
2023-02-03T14:23:41.984Z,3.13
2023-02-03T14:26:18.875Z,2.00
2023-02-03T14:28:48.378Z,1.90
2023-02-03T14:31:21.404Z,1.63
2023-02-03T14:33:48.632Z,2.75
2023-02-03T14:36:30.792Z,2.42
2023-02-03T14:39:02.344Z,1.80
2023-02-03T14:41:51.101Z,1.92
2023-02-03T14:44:41.347Z,2.03
2023-02-03T14:47:17.972Z,2.58
2023-02-03T14:50:23.860Z,2.72
2023-02-03T14:52:57.089Z,2.28
2023-02-03T14:55:38.948Z,2.38
2023-02-03T14:58:19.036Z,2.00
2023-02-03T15:00:46.510Z,2.92
2023-02-03T15:03:22.352Z,2.08
2023-02-03T15:06:34.307Z,2.28
2023-02-03T15:09:02.192Z,2.20
2023-02-03T15:11:32.889Z,2.13
2023-02-03T15:14:21.966Z,2.20
2023-02-03T15:17:02.314Z,1.75
2023-02-03T15:19:34.314Z,2.47
2023-02-03T15:22:18.073Z,2.08
2023-02-03T15:24:48.706Z,2.35
2023-02-03T15:27:25.564Z,2.20
2023-02-03T15:29:53.498Z,2.08
2023-02-03T15:32:29.041Z,2.55
2023-02-03T15:35:00.295Z,1.75
2023-02-03T15:37:32.802Z,2.10
2023-02-03T15:40:08.867Z,1.67
2023-02-03T15:43:04.535Z,1.88
2023-02-03T15:45:56.096Z,2.08
2023-02-03T15:48:40.033Z,2.10
2023-02-03T15:51:33.151Z,2.42
2023-02-03T15:54:10.414Z,1.80
2023-02-03T15:56:48.880Z,1.70
2023-02-03T15:59:23.743Z,2.05
2023-02-03T16:01:54.190Z,1.60
2023-02-03T16:04:22.972Z,2.15
2023-02-03T16:06:52.675Z,1.88
2023-02-03T16:09:32.893Z,1.90
2023-02-03T16:12:23.427Z,1.98
2023-02-03T16:14:53.837Z,2.00
2023-02-03T16:17:32.126Z,1.80
2023-02-03T16:20:11.960Z,1.70
2023-02-03T16:22:41.095Z,1.63
2023-02-03T16:25:20.700Z,1.50
2023-02-03T16:28:21.147Z,1.83
2023-02-03T16:31:34.920Z,2.10
2023-02-03T16:34:32.048Z,1.83
2023-02-03T16:37:19.314Z,1.70
2023-02-03T16:40:09.459Z,1.77
2023-02-03T16:42:59.777Z,1.42
2023-02-03T16:45:48.585Z,1.60
2023-02-03T16:48:40.508Z,1.80
2023-02-03T16:51:17.081Z,1.83
2023-02-03T16:53:45.757Z,1.75
2023-02-03T16:56:17.780Z,1.90
2023-02-03T16:58:45.534Z,1.80
2023-02-03T17:01:14.134Z,1.33
2023-02-03T17:03:44.350Z,1.80
2023-02-03T17:06:12.931Z,1.50
2023-02-03T17:08:43.637Z,1.50
2023-02-03T17:11:17.319Z,1.50
2023-02-03T17:13:45.459Z,1.40
2023-02-03T17:16:23.017Z,1.75
2023-02-03T17:18:50.817Z,1.80
2023-02-03T17:21:25.314Z,1.55
2023-02-03T17:23:53.107Z,1.50
2023-02-03T17:26:23.416Z,1.38
2023-02-03T17:28:50.850Z,1.50
2023-02-03T17:31:20.145Z,1.55
2023-02-03T17:33:51.630Z,1.50
2023-02-03T17:36:22.423Z,1.27
2023-02-03T17:55:40.512Z,1.30
2023-02-03T17:58:07.935Z,1.88
2023-02-03T18:00:35.330Z,1.20
2023-02-03T18:03:05.036Z,1.75
2023-02-03T18:05:32.599Z,1.77
2023-02-03T18:08:05.805Z,1.50
2023-02-03T18:10:39.705Z,1.90
2023-02-03T18:13:06.923Z,1.75
2023-02-03T18:15:34.173Z,2.03
2023-02-03T18:18:01.316Z,2.20
2023-02-03T18:20:28.832Z,2.17
2023-02-03T18:22:56.224Z,2.10
2023-02-03T18:25:23.378Z,2.05
2023-02-03T18:27:51.630Z,1.80
2023-02-03T18:30:21.515Z,2.15
2023-02-03T18:32:54.620Z,2.55
2023-02-03T18:35:23.956Z,2.00
2023-02-03T18:37:53.358Z,2.40
2023-02-03T18:40:20.725Z,2.20
2023-02-03T18:42:48.095Z,2.58
2023-02-03T18:45:15.282Z,1.88
2023-02-03T18:47:42.774Z,2.10
2023-02-03T18:50:10.127Z,2.15
2023-02-03T18:52:40.350Z,1.98
2023-02-03T18:55:08.109Z,2.20
2023-02-03T18:57:37.544Z,2.08
2023-02-03T19:00:07.010Z,2.67
2023-02-03T19:02:34.554Z,2.50
2023-02-03T19:05:01.945Z,1.90
2023-02-03T19:07:29.063Z,2.00
2023-02-03T19:09:56.521Z,2.20
2023-02-03T19:12:26.342Z,1.85
2023-02-03T19:14:56.183Z,1.88
2023-02-03T19:17:26.760Z,2.08
2023-02-03T19:19:56.225Z,2.10
2023-02-03T19:22:23.550Z,2.20
2023-02-03T19:24:50.998Z,2.03
2023-02-03T19:27:18.301Z,1.65
2023-02-03T19:29:48.277Z,1.65
2023-02-03T19:32:15.641Z,1.92
2023-02-03T19:34:42.991Z,2.22
2023-02-03T19:37:10.119Z,1.90
2023-02-03T19:39:37.580Z,2.35
2023-02-03T19:42:04.925Z,1.60
2023-02-03T19:44:32.131Z,2.42
2023-02-03T19:47:03.695Z,1.70
2023-02-03T19:49:30.923Z,1.95
2023-02-03T19:51:58.352Z,2.10
2023-02-03T19:54:27.949Z,2.10
2023-02-03T19:56:55.298Z,1.83
2023-02-03T19:59:24.933Z,2.08
2023-02-03T20:01:58.083Z,2.05
2023-02-03T20:04:28.093Z,2.42
2023-02-03T20:06:55.210Z,2.10
2023-02-03T20:09:25.005Z,1.95
2023-02-03T20:11:52.143Z,2.10
2023-02-03T20:14:23.986Z,2.13
2023-02-03T20:16:53.850Z,1.83
2023-02-03T20:19:21.078Z,1.88
2023-02-03T20:21:48.409Z,1.88
2023-02-03T20:24:16.015Z,1.70
2023-02-03T20:26:43.393Z,1.75
2023-02-03T20:29:10.827Z,2.00
2023-02-03T20:31:40.883Z,1.85
2023-02-03T20:34:08.333Z,1.33
2023-02-03T20:36:35.469Z,1.70
2023-02-03T20:39:02.951Z,2.03
2023-02-03T20:41:30.272Z,1.98
2023-02-03T20:43:57.483Z,1.63
2023-02-03T20:46:27.234Z,1.80
2023-02-03T20:48:56.823Z,1.50
2023-02-03T20:51:29.699Z,1.67
2023-02-03T20:54:01.933Z,1.42
2023-02-03T20:56:29.246Z,1.83
2023-02-03T20:58:59.117Z,1.75
2023-02-03T21:01:30.100Z,1.50
2023-02-03T21:04:16.021Z,1.55
2023-02-03T21:06:43.158Z,2.08
2023-02-03T21:09:16.212Z,1.70
2023-02-03T21:14:19.833Z,1.70
2023-02-03T21:16:47.780Z,1.40
2023-02-03T21:19:28.846Z,1.38
2023-02-03T21:21:58.772Z,1.42
2023-02-03T21:24:32.977Z,1.52
2023-02-03T21:27:01.131Z,1.35
2023-02-03T21:29:39.898Z,1.70
2023-02-03T21:32:14.200Z,1.73
2023-02-03T21:34:43.895Z,1.67
2023-02-03T21:37:20.250Z,1.48
2023-02-03T21:39:51.006Z,1.60
2023-02-03T21:42:42.411Z,1.42
2023-02-03T21:45:24.174Z,1.60
2023-02-03T21:47:53.027Z,1.75
2023-02-03T21:50:40.848Z,1.50
2023-02-03T21:53:08.100Z,1.70
2023-02-03T21:55:40.965Z,1.70
2023-02-03T21:58:31.388Z,1.52
2023-02-03T22:01:07.174Z,1.60
2023-02-03T22:03:43.197Z,1.60
2023-02-03T22:06:16.548Z,1.40
2023-02-03T22:11:20.399Z,1.50
2023-02-03T22:13:47.963Z,1.48
2023-02-03T22:16:18.166Z,1.50
2023-02-03T22:18:51.056Z,1.53
2023-02-03T22:21:18.801Z,1.55
2023-02-03T22:23:48.796Z,1.40
2023-02-03T22:26:16.803Z,1.60
2023-02-03T22:28:47.072Z,1.40
2023-02-03T22:31:14.903Z,1.70
2023-02-03T22:33:42.603Z,1.27
2023-02-03T22:36:10.675Z,1.55
2023-02-03T22:38:39.641Z,1.77
2023-02-03T22:41:12.971Z,1.30
2023-02-03T22:43:40.631Z,1.65
2023-02-03T22:46:08.283Z,1.30
2023-02-03T22:48:35.643Z,1.48
2023-02-03T22:51:03.162Z,1.35
2023-02-03T22:53:30.689Z,1.40
2023-02-03T22:56:00.046Z,1.73
2023-02-03T22:58:27.341Z,1.30
2023-02-03T23:00:54.735Z,1.60
2023-02-03T23:03:22.075Z,1.50
2023-02-03T23:05:51.892Z,1.75
2023-02-03T23:08:19.123Z,1.50
2023-02-03T23:10:48.178Z,1.35
2023-02-03T23:13:18.838Z,1.40
2023-02-03T23:15:46.069Z,2.05
2023-02-03T23:18:14.522Z,1.40
2023-02-03T23:20:44.222Z,1.33
2023-02-03T23:23:11.384Z,1.38
2023-02-03T23:25:38.733Z,1.30
2023-02-03T23:28:05.931Z,1.80
2023-02-03T23:30:34.123Z,1.40
2023-02-03T23:33:01.390Z,1.67
2023-02-03T23:35:46.832Z,1.45
2023-02-03T23:38:18.093Z,1.38
2023-02-03T23:40:45.607Z,1.50
2023-02-03T23:43:13.119Z,1.17
2023-02-03T23:45:42.982Z,1.20
2023-02-03T23:48:10.654Z,1.45
2023-02-03T23:50:38.051Z,1.52
2023-02-03T23:53:05.533Z,1.23
2023-02-03T23:55:36.417Z,1.33
2023-02-03T23:58:05.832Z,1.10
